Time;durP1;ratioP1;P1;durP2;ratioP2;P2;SDS_P1;SDS_P2;PMS_P1;PMS_P2;Temp;Humidity;BMP_temperature;BMP_pressure;BME280_temperature;BME280_humidity;BME280_pressure;Samples;Min_cycle;Max_cycle;Signal;HPM_P1;HPM_P2
2022/01/12 00:00:39;;;;;;;3.00;2.05;;;;;;;-2.79;89.63;95437.88;5055349;28;20048;-50
2022/01/12 00:03:07;;;;;;;6.10;2.95;;;;;;;-2.78;89.05;95439.50;5058470;28;20052;-52
2022/01/12 00:05:34;;;;;;;4.50;2.40;;;;;;;-2.69;89.49;95451.44;5056809;28;20128;-51
2022/01/12 00:08:01;;;;;;;5.88;3.03;;;;;;;-2.67;89.44;95457.19;5059312;28;20037;-50
2022/01/12 00:10:28;;;;;;;3.70;2.10;;;;;;;-2.60;87.88;95458.28;5062560;28;20418;-52
2022/01/12 00:12:55;;;;;;;4.63;1.67;;;;;;;-2.68;88.83;95450.50;5058431;28;20065;-50
2022/01/12 00:15:21;;;;;;;5.70;3.13;;;;;;;-2.66;89.38;95458.81;5062527;28;20041;-50
2022/01/12 00:17:48;;;;;;;6.25;3.17;;;;;;;-2.62;90.76;95470.38;5061405;28;20052;-50
2022/01/12 00:20:15;;;;;;;8.43;4.30;;;;;;;-2.63;91.03;95468.78;5055103;28;20052;-53
2022/01/12 00:22:43;;;;;;;3.75;2.30;;;;;;;-2.69;88.54;95469.28;5061877;28;20043;-50
2022/01/12 00:25:25;;;;;;;5.80;2.42;;;;;;;-2.65;89.34;95470.63;5060661;28;20055;-51
2022/01/12 00:33:31;;;;;;;13.80;6.20;;;;;;;-2.95;94.38;95480.00;5056093;28;20123;-52
2022/01/12 00:35:58;;;;;;;5.68;2.15;;;;;;;-3.01;95.00;95480.50;5057008;28;20052;-50
2022/01/12 00:38:29;;;;;;;7.20;4.55;;;;;;;-3.05;94.96;95484.25;5059577;28;20044;-50
2022/01/12 00:40:59;;;;;;;6.43;2.25;;;;;;;-2.94;94.49;95475.69;5058743;28;20837;-50
2022/01/12 00:43:28;;;;;;;10.25;4.68;;;;;;;-2.93;94.72;95473.00;5060721;28;20048;-52
2022/01/12 00:45:56;;;;;;;6.45;2.63;;;;;;;-2.84;92.86;95478.28;5064264;28;20079;-54
2022/01/12 00:48:23;;;;;;;22.15;7.57;;;;;;;-2.93;92.85;95473.00;5058261;28;20044;-51
2022/01/12 00:50:50;;;;;;;9.68;3.55;;;;;;;-2.83;92.39;95469.69;5057097;28;20044;-55
2022/01/12 00:53:18;;;;;;;6.82;3.50;;;;;;;-2.85;92.35;95479.19;5056141;28;20083;-52
2022/01/12 00:55:45;;;;;;;6.15;2.92;;;;;;;-2.83;86.88;95462.03;5061361;28;20048;-50
2022/01/12 00:58:12;;;;;;;3.88;2.75;;;;;;;-2.71;87.99;95486.47;5059020;28;20482;-49
2022/01/12 01:00:39;;;;;;;7.70;3.60;;;;;;;-2.72;89.38;95484.84;5060548;28;20049;-49
2022/01/12 01:03:08;;;;;;;5.05;2.63;;;;;;;-2.73;89.59;95478.16;5061022;28;20054;-50
2022/01/12 01:05:36;;;;;;;5.65;3.72;;;;;;;-2.88;89.89;95475.97;5059901;28;20130;-54
2022/01/12 01:08:03;;;;;;;3.40;1.90;;;;;;;-2.79;90.07;95492.22;5056303;28;20037;-49
2022/01/12 01:10:51;;;;;;;4.53;2.85;;;;;;;-2.79;90.09;95491.41;5055056;28;20040;-50
2022/01/12 01:13:26;;;;;;;8.95;3.42;;;;;;;-2.80;90.18;95477.88;5059670;28;20088;-50
2022/01/12 01:16:03;;;;;;;5.90;3.22;;;;;;;-2.84;90.25;95475.72;5058846;28;20072;-54
2022/01/12 01:26:50;;;;;;;6.75;4.03;;;;;;;-3.06;92.08;95482.66;5056121;28;20424;-50
2022/01/12 01:29:19;;;;;;;6.13;2.22;;;;;;;-2.99;92.06;95488.84;5059160;28;20036;-53
2022/01/12 01:31:47;;;;;;;6.10;3.30;;;;;;;-2.97;91.59;95489.53;5057492;28;20124;-51
2022/01/12 01:34:15;;;;;;;8.02;3.75;;;;;;;-3.09;92.17;95488.00;5056652;28;20052;-50
2022/01/12 01:36:49;;;;;;;6.95;4.40;;;;;;;-3.07;91.93;95491.22;5054079;28;20051;-51
2022/01/12 01:39:22;;;;;;;3.25;1.63;;;;;;;-3.09;91.88;95483.72;5060600;28;20056;-52
2022/01/12 01:42:22;;;;;;;9.00;4.07;;;;;;;-3.11;92.65;95484.78;5062050;28;20075;-50
2022/01/12 01:55:41;;;;;;;8.10;3.72;;;;;;;-3.05;93.02;95488.56;5060822;28;20041;-49
2022/01/12 01:58:08;;;;;;;7.07;3.78;;;;;;;-3.12;93.50;95506.09;5061873;28;20051;-51
2022/01/12 02:00:39;;;;;;;9.45;4.57;;;;;;;-3.25;93.39;95477.50;5063612;28;20051;-52
2022/01/12 02:03:11;;;;;;;5.60;3.28;;;;;;;-3.18;93.98;95496.44;5060467;28;20048;-50
2022/01/12 02:05:43;;;;;;;5.80;3.05;;;;;;;-3.45;96.12;95508.00;5064200;28;20053;-53
2022/01/12 02:08:11;;;;;;;9.73;3.72;;;;;;;-3.44;96.70;95498.59;5069808;28;20099;-50
2022/01/12 02:11:07;;;;;;;7.03;4.22;;;;;;;-3.42;95.73;95502.66;5057092;28;20055;-51
2022/01/12 02:13:34;;;;;;;7.40;4.03;;;;;;;-3.31;95.06;95494.13;5064601;28;20137;-53
2022/01/12 02:16:01;;;;;;;4.20;2.15;;;;;;;-3.46;96.17;95506.38;5066366;28;20045;-51
2022/01/12 02:40:32;;;;;;;9.60;4.25;;;;;;;-2.94;91.93;95532.56;5063969;28;20048;-50
2022/01/12 02:51:10;;;;;;;2.13;1.63;;;;;;;-2.85;89.50;95546.28;5067161;28;20044;-50
2022/01/12 02:53:42;;;;;;;4.25;2.42;;;;;;;-2.86;87.67;95547.22;5063684;28;20045;-49
2022/01/12 02:56:14;;;;;;;4.25;2.33;;;;;;;-2.98;88.43;95561.81;5063858;28;20048;-49
2022/01/12 02:58:42;;;;;;;8.45;2.10;;;;;;;-3.01;88.44;95562.06;5069297;28;20124;-51
2022/01/12 03:03:56;;;;;;;5.10;2.47;;;;;;;-3.18;88.74;95570.34;5064481;28;20051;-49
2022/01/12 03:06:25;;;;;;;4.43;2.38;;;;;;;-3.28;89.71;95577.91;5064224;28;20044;-51
2022/01/12 03:08:52;;;;;;;10.15;5.03;;;;;;;-3.37;91.58;95571.84;5073775;28;20039;-49
2022/01/12 03:11:21;;;;;;;9.63;4.38;;;;;;;-3.37;91.48;95574.38;5063997;28;20040;-51
2022/01/12 03:13:52;;;;;;;4.30;2.45;;;;;;;-3.34;89.47;95581.78;5064167;28;20043;-50
2022/01/12 03:16:23;;;;;;;6.50;3.35;;;;;;;-3.34;89.18;95579.22;5063204;28;20068;-50
2022/01/12 03:18:54;;;;;;;11.85;2.80;;;;;;;-3.40;88.91;95577.19;5064078;28;20045;-50
2022/01/12 03:21:24;;;;;;;3.83;2.67;;;;;;;-3.50;90.10;95566.16;5067089;28;20068;-49
2022/01/12 03:23:52;;;;;;;6.70;3.15;;;;;;;-3.51;90.39;95590.81;5065300;28;20079;-49
2022/01/12 03:26:20;;;;;;;2.90;2.50;;;;;;;-3.57;90.63;95591.28;5064524;28;20052;-50
2022/01/12 03:28:52;;;;;;;4.03;2.17;;;;;;;-3.60;90.67;95590.75;5062874;28;20585;-50
2022/01/12 03:31:23;;;;;;;2.70;1.80;;;;;;;-3.63;89.93;95591.00;5063516;28;20044;-52
2022/01/12 04:08:39;;;;;;;8.70;3.65;;;;;;;-4.17;93.95;95626.63;5061418;28;20055;-49
2022/01/12 04:11:06;;;;;;;6.68;3.00;;;;;;;-4.14;93.53;95634.03;5063266;28;20087;-50
2022/01/12 04:13:33;;;;;;;8.18;4.95;;;;;;;-4.06;92.42;95641.84;5062141;28;20060;-51
2022/01/12 04:16:06;;;;;;;8.50;4.32;;;;;;;-4.06;92.19;95652.03;5062313;28;20045;-51
2022/01/12 04:18:35;;;;;;;6.95;1.88;;;;;;;-4.04;92.16;95645.09;5061854;28;20033;-54
2022/01/12 04:21:05;;;;;;;5.80;3.17;;;;;;;-3.99;91.50;95647.28;5071417;28;20048;-49
2022/01/12 04:23:35;;;;;;;6.80;3.40;;;;;;;-4.10;91.69;95645.56;5064206;28;20041;-50
2022/01/12 04:26:10;;;;;;;4.95;3.47;;;;;;;-4.10;91.99;95654.94;5062040;28;20464;-51
2022/01/12 04:28:41;;;;;;;3.17;1.35;;;;;;;-4.05;91.10;95648.56;5062013;28;20119;-49
2022/01/12 04:31:10;;;;;;;3.65;2.58;;;;;;;-4.06;91.15;95652.03;5062295;28;20048;-51
2022/01/12 04:33:39;;;;;;;4.28;2.28;;;;;;;-4.08;91.15;95656.44;5066098;28;20048;-55
2022/01/12 04:36:07;;;;;;;2.45;1.70;;;;;;;-4.07;91.27;95649.59;5061845;28;20045;-49
2022/01/12 04:38:35;;;;;;;2.20;1.77;;;;;;;-4.10;91.19;95660.84;5069236;28;20068;-50
2022/01/12 04:41:06;;;;;;;1.92;1.42;;;;;;;-4.12;90.79;95657.63;5060615;28;20136;-50
2022/01/12 04:43:36;;;;;;;3.40;2.25;;;;;;;-4.13;90.64;95661.06;5061878;28;20131;-50
2022/01/12 04:48:36;;;;;;;4.93;3.13;;;;;;;-4.16;91.12;95663.88;5062758;28;20036;-50
2022/01/12 04:51:04;;;;;;;3.47;2.73;;;;;;;-4.24;91.38;95643.31;5061783;28;20051;-49
2022/01/12 04:53:31;;;;;;;5.88;3.08;;;;;;;-4.22;91.95;95670.22;5065692;28;20458;-50
2022/01/12 04:56:02;;;;;;;6.85;2.88;;;;;;;-4.26;91.77;95671.41;5061193;28;20040;-50
2022/01/12 04:58:30;;;;;;;5.10;2.80;;;;;;;-4.29;92.30;95675.91;5063024;28;20463;-49
2022/01/12 05:01:04;;;;;;;5.90;2.95;;;;;;;-4.23;91.81;95688.97;5070334;28;20046;-51
2022/01/12 05:15:09;;;;;;;2.05;1.60;;;;;;;-4.29;90.56;95714.06;5020500;28;20431;-49
2022/01/12 05:17:36;;;;;;;4.38;2.90;;;;;;;-4.27;90.26;95709.66;5058507;28;20068;-50
2022/01/12 05:20:04;;;;;;;22.75;9.30;;;;;;;-4.23;89.31;95721.25;5070327;28;20426;-48
2022/01/12 05:22:31;;;;;;;4.03;2.63;;;;;;;-4.21;90.06;95719.38;5061607;28;20567;-49
2022/01/12 05:24:58;;;;;;;17.77;7.35;;;;;;;-4.21;90.28;95719.38;5065745;28;20059;-49
2022/01/12 05:27:28;;;;;;;3.70;1.75;;;;;;;-4.24;90.67;95724.69;5061492;28;20164;-51
2022/01/12 05:29:55;;;;;;;5.65;3.30;;;;;;;-4.25;90.12;95733.25;5061615;28;20051;-51
2022/01/12 05:32:24;;;;;;;4.68;3.22;;;;;;;-4.27;90.38;95730.00;5061821;28;20040;-51
2022/01/12 05:34:58;;;;;;;3.70;2.45;;;;;;;-4.26;90.72;95737.53;5062328;28;20051;-49
2022/01/12 05:37:26;;;;;;;4.85;2.33;;;;;;;-4.36;91.47;95734.06;5061738;28;20042;-50
2022/01/12 05:39:52;;;;;;;4.63;2.83;;;;;;;-4.40;91.70;95739.50;5066860;28;20443;-50
2022/01/12 05:42:27;;;;;;;6.70;3.42;;;;;;;-4.40;91.62;95749.69;5060461;28;20098;-53
2022/01/12 05:44:54;;;;;;;8.80;5.10;;;;;;;-4.40;91.84;95753.03;5065294;28;20048;-52
2022/01/12 05:50:08;;;;;;;6.13;2.60;;;;;;;-4.50;92.38;95750.38;5061629;28;20036;-49
2022/01/12 05:52:36;;;;;;;8.93;3.13;;;;;;;-4.56;92.72;95753.38;5063176;28;20083;-49
2022/01/12 05:55:04;;;;;;;5.82;3.10;;;;;;;-4.61;93.56;95753.72;5061850;28;20466;-49
2022/01/12 05:57:32;;;;;;;2.90;1.27;;;;;;;-4.66;93.98;95749.91;5061313;28;20051;-49
2022/01/12 06:00:00;;;;;;;9.55;4.03;;;;;;;-4.73;95.18;95759.72;5062543;28;20049;-51
2022/01/12 06:02:29;;;;;;;4.65;3.05;;;;;;;-4.83;95.36;95769.75;5066258;28;20048;-49
2022/01/12 06:04:56;;;;;;;1.67;1.25;;;;;;;-4.88;95.97;95771.84;5063928;28;20589;-52
2022/01/12 06:07:23;;;;;;;2.20;1.67;;;;;;;-4.90;96.78;95768.56;5063600;28;20045;-49
2022/01/12 06:09:51;;;;;;;2.28;1.60;;;;;;;-4.94;97.07;95774.81;5061602;28;20072;-51
2022/01/12 06:12:17;;;;;;;1.55;1.38;;;;;;;-4.96;97.78;95774.13;5061381;28;20484;-48
2022/01/12 06:14:44;;;;;;;4.50;2.03;;;;;;;-4.96;97.71;95781.75;5062528;28;20066;-50
2022/01/12 06:17:12;;;;;;;3.58;1.45;;;;;;;-4.94;97.64;95782.44;5061291;28;20135;-50
2022/01/12 06:19:40;;;;;;;3.17;2.33;;;;;;;-4.91;97.34;95792.38;5060947;28;20044;-49
2022/01/12 06:22:25;;;;;;;1.13;0.90;;;;;;;-4.87;97.37;95798.84;5061627;28;20155;-49
2022/01/12 06:24:54;;;;;;;6.80;2.17;;;;;;;-4.83;97.26;95795.16;5064716;28;20052;-49
2022/01/12 06:27:22;;;;;;;29.88;7.82;;;;;;;-4.80;97.41;95802.56;5062207;28;20055;-50
2022/01/12 06:32:16;;;;;;;11.57;4.05;;;;;;;-4.63;94.82;95803.06;5061868;28;20139;-52
2022/01/12 06:34:45;;;;;;;9.02;4.43;;;;;;;-4.52;93.81;95812.44;5060920;28;20045;-49
2022/01/12 06:37:13;;;;;;;3.63;2.83;;;;;;;-4.56;92.50;95803.41;5056588;28;20049;-50
2022/01/12 06:39:40;;;;;;;7.80;2.58;;;;;;;-4.45;92.61;95824.59;5054189;28;20163;-49
2022/01/12 06:42:08;;;;;;;3.15;2.60;;;;;;;-4.37;92.62;95828.31;5054592;28;20408;-49
2022/01/12 06:44:35;;;;;;;3.40;2.83;;;;;;;-4.30;92.18;95822.66;5058471;28;20439;-50
2022/01/12 06:47:03;;;;;;;3.55;2.10;;;;;;;-4.32;91.20;95823.66;5058547;28;20040;-51
2022/01/12 06:49:31;;;;;;;7.75;3.20;;;;;;;-4.25;91.49;95824.81;5057109;28;20091;-49
2022/01/12 06:52:01;;;;;;;5.68;3.53;;;;;;;-4.17;90.35;95835.25;5058324;28;20043;-50
2022/01/12 06:54:28;;;;;;;4.68;2.65;;;;;;;-4.07;88.60;95833.63;5059694;28;20049;-49
2022/01/12 06:56:56;;;;;;;3.22;1.80;;;;;;;-3.98;88.84;95838.94;5061234;28;20571;-51
2022/01/12 06:59:23;;;;;;;3.13;1.58;;;;;;;-3.92;88.44;95835.94;5060164;28;20043;-53
2022/01/12 07:01:53;;;;;;;4.85;1.63;;;;;;;-3.89;87.60;95835.69;5063446;28;21867;-48
2022/01/12 07:04:30;;;;;;;6.28;2.78;;;;;;;-3.92;88.10;95830.84;5064343;28;20109;-49
2022/01/12 07:06:59;;;;;;;8.43;3.42;;;;;;;-3.78;88.29;95840.81;5059430;28;22067;-52
2022/01/12 07:09:29;;;;;;;6.28;2.75;;;;;;;-3.71;86.99;95852.13;5062428;28;20580;-51
2022/01/12 07:12:00;;;;;;;2.58;1.67;;;;;;;-3.68;85.63;95844.25;5061767;28;20076;-49
2022/01/12 07:14:30;;;;;;;5.95;2.40;;;;;;;-3.62;84.63;95852.34;5062024;28;20037;-51
2022/01/12 07:16:59;;;;;;;7.63;3.53;;;;;;;-3.62;84.95;95857.44;5063937;28;20051;-50
2022/01/12 07:19:26;;;;;;;2.58;1.73;;;;;;;-3.59;83.76;95852.09;5062657;28;20053;-50
2022/01/12 07:21:54;;;;;;;4.03;2.55;;;;;;;-3.62;82.66;95858.22;5062953;28;20044;-52
2022/01/12 07:24:21;;;;;;;4.30;2.60;;;;;;;-3.59;81.90;95872.47;5066961;28;20051;-48
2022/01/12 07:26:48;;;;;;;4.75;2.30;;;;;;;-3.56;82.45;95867.16;5066558;28;20055;-51
2022/01/12 07:29:15;;;;;;;7.30;2.00;;;;;;;-3.58;80.80;95862.19;5070446;28;20040;-50
2022/01/12 07:31:42;;;;;;;6.70;2.88;;;;;;;-3.42;80.67;95869.44;5060258;28;20052;-50
2022/01/12 07:34:10;;;;;;;3.97;1.77;;;;;;;-3.28;80.96;95866.63;5064454;28;20036;-50
2022/01/12 07:36:37;;;;;;;4.55;2.83;;;;;;;-3.15;80.81;95863.09;5062809;28;20079;-52
2022/01/12 07:39:04;;;;;;;6.32;3.33;;;;;;;-3.07;80.29;95858.22;5063442;28;20521;-53
2022/01/12 07:41:31;;;;;;;5.78;2.72;;;;;;;-2.91;77.43;95865.47;5061875;28;20115;-51
2022/01/12 07:43:58;;;;;;;5.57;2.20;;;;;;;-2.84;76.55;95865.81;5061119;28;20052;-51
2022/01/12 07:46:25;;;;;;;3.10;1.63;;;;;;;-2.73;76.59;95860.66;5060449;28;20132;-49
2022/01/12 07:48:52;;;;;;;4.38;2.83;;;;;;;-2.58;76.22;95869.59;5064284;28;20059;-53
2022/01/12 07:51:19;;;;;;;6.20;3.58;;;;;;;-2.46;76.10;95867.00;5066353;28;20834;-52
2022/01/12 07:53:46;;;;;;;5.68;2.58;;;;;;;-2.32;75.45;95874.34;5064314;28;20100;-50
2022/01/12 07:56:13;;;;;;;3.38;1.75;;;;;;;-2.25;74.03;95870.34;5063850;28;21461;-50
2022/01/12 07:58:40;;;;;;;8.32;5.05;;;;;;;-2.15;75.42;95873.75;5062310;28;20041;-50
2022/01/12 08:01:07;;;;;;;5.07;3.17;;;;;;;-2.03;75.12;95886.47;5065853;28;20403;-52
2022/01/12 08:03:34;;;;;;;7.57;3.10;;;;;;;-2.02;73.23;95890.63;5058652;28;20518;-52
2022/01/12 08:06:01;;;;;;;3.00;2.38;;;;;;;-2.08;73.55;95896.25;5064590;28;20040;-49
2022/01/12 08:08:28;;;;;;;4.70;2.45;;;;;;;-2.03;73.23;95901.78;5060929;28;20048;-50
2022/01/12 08:10:55;;;;;;;17.75;6.30;;;;;;;-1.97;72.01;95898.72;5063565;28;20501;-50
2022/01/12 08:13:22;;;;;;;11.70;4.22;;;;;;;-2.09;70.87;95899.72;5063165;28;20132;-52
2022/01/12 08:15:49;;;;;;;7.05;3.17;;;;;;;-1.93;72.54;95911.09;5065969;28;20528;-50
2022/01/12 08:18:15;;;;;;;4.97;2.53;;;;;;;-1.75;71.89;95924.09;5061258;28;20048;-54
2022/01/12 08:20:43;;;;;;;2.55;1.80;;;;;;;-1.64;70.41;95917.25;5059784;28;20513;-53
2022/01/12 08:23:10;;;;;;;6.45;3.35;;;;;;;-1.54;69.76;95916.34;5063684;28;20098;-53
2022/01/12 08:25:38;;;;;;;10.55;3.28;;;;;;;-1.45;69.99;95914.78;5055953;28;20040;-54
2022/01/12 08:28:06;;;;;;;5.78;2.78;;;;;;;-1.42;69.05;95924.75;5059092;28;20055;-51
2022/01/12 08:30:34;;;;;;;8.32;4.72;;;;;;;-1.42;69.33;95917.09;5061533;28;20047;-50
2022/01/12 08:33:04;;;;;;;6.50;3.05;;;;;;;-1.35;70.03;95925.84;5062053;28;20064;-51
2022/01/12 08:35:31;;;;;;;4.10;2.70;;;;;;;-1.18;69.42;95926.16;5066419;28;20047;-49
2022/01/12 08:37:58;;;;;;;3.97;2.30;;;;;;;-1.02;68.07;95926.47;5066290;28;20069;-50
2022/01/12 08:40:26;;;;;;;5.35;2.28;;;;;;;-1.00;65.96;95929.69;5059983;28;20502;-49
2022/01/12 08:42:53;;;;;;;5.35;2.33;;;;;;;-0.98;65.75;95922.69;5061126;28;20505;-49
2022/01/12 08:45:21;;;;;;;7.93;4.07;;;;;;;-0.80;67.92;95929.72;5061868;28;20053;-50
2022/01/12 08:47:48;;;;;;;8.68;5.07;;;;;;;-0.69;67.99;95921.91;5062430;28;20049;-53
2022/01/12 08:50:15;;;;;;;7.53;4.95;;;;;;;-0.67;65.40;95914.91;5060458;28;20057;-53
2022/01/12 08:52:46;;;;;;;9.52;5.60;;;;;;;-0.56;65.47;95920.84;5058427;28;20037;-51
2022/01/12 08:55:18;;;;;;;7.97;4.60;;;;;;;-0.62;65.37;95927.31;5065830;28;20409;-50
2022/01/12 08:57:46;;;;;;;6.22;3.33;;;;;;;-0.62;65.97;95933.22;5061428;28;20116;-53
2022/01/12 09:00:15;;;;;;;28.63;12.57;;;;;;;-0.86;65.46;95936.19;5062471;28;20052;-50
2022/01/12 09:02:42;;;;;;;4.35;2.63;;;;;;;-0.99;64.13;95936.44;5059529;28;20568;-52
2022/01/12 09:05:11;;;;;;;2.90;2.70;;;;;;;-1.38;64.92;95928.66;5060518;28;20072;-52
2022/01/12 09:07:39;;;;;;;5.05;2.55;;;;;;;-1.57;66.44;95937.09;5061538;28;20560;-49
2022/01/12 09:10:07;;;;;;;6.13;3.45;;;;;;;-1.20;69.38;95933.16;5064304;28;20071;-50
2022/01/12 09:12:36;;;;;;;5.78;2.40;;;;;;;-0.97;67.25;95932.00;5061906;28;20052;-50
2022/01/12 09:15:08;;;;;;;9.80;5.13;;;;;;;-0.77;67.40;95930.25;5063668;28;20528;-49
2022/01/12 09:17:35;;;;;;;7.90;3.53;;;;;;;-0.53;66.83;95921.38;5065425;28;20058;-52
2022/01/12 09:20:05;;;;;;;4.53;2.20;;;;;;;-0.30;65.96;95921.91;5065808;28;20048;-53
2022/01/12 09:22:33;;;;;;;4.25;2.85;;;;;;;-0.25;64.48;95919.75;5071688;28;20070;-52
2022/01/12 09:25:00;;;;;;;3.85;2.22;;;;;;;-0.40;64.89;95915.97;5068891;28;20763;-51
2022/01/12 09:27:27;;;;;;;5.97;3.45;;;;;;;-0.07;65.77;95912.19;5071577;28;20046;-51
2022/01/12 09:29:54;;;;;;;9.95;5.28;;;;;;;0.29;68.33;95916.66;5070109;28;20127;-54
2022/01/12 09:32:21;;;;;;;7.97;4.57;;;;;;;0.66;65.78;95918.41;5066324;28;20437;-51
2022/01/12 09:34:48;;;;;;;12.05;4.18;;;;;;;0.98;63.46;95914.59;5057855;28;20059;-55
2022/01/12 09:37:15;;;;;;;11.25;5.53;;;;;;;1.32;63.88;95920.69;5062896;28;20525;-53
2022/01/12 09:39:41;;;;;;;8.15;3.70;;;;;;;1.41;59.79;95918.22;5055671;28;20052;-50
2022/01/12 09:42:09;;;;;;;70.38;20.38;;;;;;;0.83;60.14;95925.34;5060440;28;20045;-50
2022/01/12 09:44:38;;;;;;;13.68;6.15;;;;;;;1.32;62.10;95923.25;5061619;28;20509;-51
2022/01/12 09:47:06;;;;;;;9.23;4.20;;;;;;;1.26;56.79;95921.28;5063422;28;20115;-50
2022/01/12 09:49:34;;;;;;;5.80;2.78;;;;;;;1.17;56.57;95927.31;5061822;28;20060;-53
2022/01/12 09:52:01;;;;;;;7.03;3.70;;;;;;;1.15;57.86;95918.91;5060039;28;20044;-51
2022/01/12 09:54:28;;;;;;;13.85;5.20;;;;;;;1.09;57.69;95919.50;5056175;28;20067;-54
2022/01/12 09:56:57;;;;;;;6.78;3.35;;;;;;;0.62;56.41;95925.56;5058008;28;20056;-52
2022/01/12 09:59:24;;;;;;;4.70;2.60;;;;;;;0.71;56.96;95931.59;5063375;28;20067;-51
2022/01/12 10:01:52;;;;;;;5.45;3.00;;;;;;;0.76;58.16;95930.22;5062255;28;20055;-53
2022/01/12 10:04:23;;;;;;;5.22;2.42;;;;;;;0.73;59.03;95929.69;5061959;28;20075;-51
2022/01/12 10:06:57;;;;;;;4.65;2.88;;;;;;;0.94;58.90;95935.41;5062189;28;20050;-51
2022/01/12 10:09:37;;;;;;;2.05;1.55;;;;;;;0.48;61.00;95926.03;5061767;28;20441;-51
2022/01/12 10:12:09;;;;;;;2.65;1.17;;;;;;;0.25;61.56;95917.88;5061454;28;20055;-52
2022/01/12 10:15:00;;;;;;;2.88;1.75;;;;;;;0.10;63.65;95920.88;5058470;28;20048;-52
2022/01/12 10:17:35;;;;;;;2.55;2.30;;;;;;;0.07;63.57;95917.78;5065321;28;20051;-51
2022/01/12 10:20:09;;;;;;;3.35;2.20;;;;;;;-0.07;62.43;95926.75;5064037;28;20421;-54
2022/01/12 10:23:06;;;;;;;4.88;2.33;;;;;;;-0.21;63.20;95931.31;5070106;28;20413;-52
2022/01/12 10:25:35;;;;;;;8.20;2.05;;;;;;;-0.24;62.99;95926.47;5062065;28;20580;-54
2022/01/12 10:28:14;;;;;;;2.47;1.85;;;;;;;-0.61;63.50;95919.50;5064742;28;20048;-52
2022/01/12 10:30:57;;;;;;;6.72;2.95;;;;;;;-0.75;64.41;95922.47;5065799;28;20037;-54
2022/01/12 10:33:30;;;;;;;12.50;2.97;;;;;;;-0.84;65.00;95918.16;5064416;28;20046;-51
2022/01/12 10:35:59;;;;;;;5.10;4.15;;;;;;;-0.80;64.26;95919.50;5063542;28;20499;-51
2022/01/12 10:38:27;;;;;;;2.75;1.95;;;;;;;-0.65;64.05;95915.59;5059657;28;20041;-51
2022/01/12 10:41:04;;;;;;;2.85;1.80;;;;;;;-0.57;63.65;95919.25;5062285;28;20041;-53
2022/01/12 10:43:37;;;;;;;2.17;1.40;;;;;;;-0.59;61.73;95917.63;5063117;28;20044;-51
2022/01/12 10:46:06;;;;;;;4.38;1.75;;;;;;;-0.66;62.96;95911.41;5061687;28;20040;-55
2022/01/12 10:48:43;;;;;;;2.78;1.33;;;;;;;-0.83;65.03;95912.06;5065584;28;20040;-54
2022/01/12 10:51:11;;;;;;;5.45;2.25;;;;;;;-0.81;66.37;95912.75;5064248;28;20458;-51
2022/01/12 10:53:38;;;;;;;3.47;2.08;;;;;;;-0.76;64.12;95910.59;5067143;28;20569;-53
2022/01/12 10:56:13;;;;;;;1.83;0.98;;;;;;;-0.94;64.32;95907.09;5065156;28;20051;-50
2022/01/12 10:58:43;;;;;;;3.88;2.95;;;;;;;-0.87;64.47;95913.28;5061993;28;20047;-50
2022/01/12 11:01:12;;;;;;;4.20;2.38;;;;;;;-0.68;63.15;95910.75;5060778;28;20542;-52
2022/01/12 11:03:41;;;;;;;4.30;2.22;;;;;;;-0.63;62.69;95900.94;5065358;28;20036;-55
2022/01/12 11:06:09;;;;;;;4.07;2.47;;;;;;;-0.36;63.75;95911.41;5071033;28;20051;-53
2022/01/12 11:08:38;;;;;;;7.10;3.90;;;;;;;-0.18;64.12;95919.19;5065654;28;20121;-51
2022/01/12 11:11:06;;;;;;;4.30;2.63;;;;;;;0.03;61.95;95911.34;5064143;28;20047;-51
2022/01/12 11:13:34;;;;;;;4.00;2.85;;;;;;;0.30;60.29;95913.16;5064924;28;20494;-53
2022/01/12 11:16:03;;;;;;;3.58;1.95;;;;;;;0.31;59.51;95925.03;5065353;28;20044;-54
2022/01/12 11:18:33;;;;;;;36.60;14.95;;;;;;;0.07;58.27;95920.34;5059970;28;20047;-51
2022/01/12 11:21:10;;;;;;;33.50;13.13;;;;;;;-0.31;58.89;95924.59;5066152;28;20046;-54
2022/01/12 11:23:40;;;;;;;4.35;2.22;;;;;;;-0.44;60.89;95924.88;5062054;28;20041;-52
2022/01/12 11:26:16;;;;;;;5.13;2.65;;;;;;;-0.51;62.77;95929.72;5062214;28;20573;-50
2022/01/12 11:28:44;;;;;;;15.07;5.53;;;;;;;-0.66;63.60;95931.88;5066244;28;20044;-56
2022/01/12 11:31:12;;;;;;;7.38;3.92;;;;;;;-0.73;65.56;95930.81;5064216;28;20044;-50
2022/01/12 11:33:43;;;;;;;5.63;2.42;;;;;;;-0.83;65.30;95924.88;5063938;28;20124;-50
2022/01/12 11:36:28;;;;;;;2.95;1.98;;;;;;;-0.77;65.63;95932.03;5060124;28;20049;-53
2022/01/12 11:39:15;;;;;;;3.92;1.92;;;;;;;-0.71;66.68;95928.91;5058875;28;20047;-56
2022/01/12 11:41:46;;;;;;;3.03;2.13;;;;;;;-0.87;64.58;95938.88;5064891;28;20037;-52
2022/01/12 11:44:20;;;;;;;3.20;2.05;;;;;;;-0.90;65.53;95944.25;5061626;28;20163;-55
2022/01/12 11:46:52;;;;;;;4.35;1.38;;;;;;;-1.00;65.42;95939.13;5063796;28;20041;-52
2022/01/12 11:49:39;;;;;;;3.28;1.10;;;;;;;-1.22;67.19;95952.94;5063475;28;20514;-51
2022/01/12 11:52:18;;;;;;;6.65;2.67;;;;;;;-1.25;67.81;95948.06;5068519;28;20051;-52
2022/01/12 11:54:47;;;;;;;3.55;2.33;;;;;;;-1.27;66.49;95948.19;5062256;28;20090;-51
2022/01/12 11:57:19;;;;;;;6.68;3.50;;;;;;;-0.82;69.45;95952.88;5069342;28;20051;-53
2022/01/12 11:59:56;;;;;;;4.88;2.40;;;;;;;-0.64;67.00;95955.59;5067321;28;20043;-55
2022/01/12 12:02:33;;;;;;;2.92;1.77;;;;;;;-0.42;65.66;95958.81;5064698;28;20057;-52
2022/01/12 12:05:10;;;;;;;2.72;1.85;;;;;;;-0.08;65.22;95961.78;5065913;28;20049;-50
2022/01/12 12:07:49;;;;;;;6.93;2.58;;;;;;;0.05;63.17;95953.00;5063563;28;20037;-50
2022/01/12 12:10:22;;;;;;;3.30;1.55;;;;;;;0.13;63.13;95950.56;5063614;28;20450;-50
2022/01/12 12:12:53;;;;;;;10.13;3.90;;;;;;;0.43;64.63;95964.88;5060885;28;20135;-53
2022/01/12 12:15:23;;;;;;;6.57;2.55;;;;;;;0.77;61.26;95969.50;5059209;28;20137;-50
2022/01/12 12:17:52;;;;;;;8.95;4.50;;;;;;;1.26;60.96;95970.06;5058115;28;20118;-53
2022/01/12 12:20:24;;;;;;;8.32;3.05;;;;;;;1.46;58.54;95967.34;5061781;28;20044;-52
2022/01/12 12:22:54;;;;;;;7.45;3.33;;;;;;;1.55;58.49;95966.50;5060169;28;20060;-53
2022/01/12 12:25:25;;;;;;;5.50;3.00;;;;;;;1.43;56.75;95967.66;5059630;28;20044;-53
2022/01/12 12:28:03;;;;;;;5.75;1.88;;;;;;;1.51;57.31;95970.28;5057890;28;20051;-53
2022/01/12 12:30:32;;;;;;;10.50;3.75;;;;;;;1.82;57.33;95957.06;5059817;28;20065;-55
2022/01/12 12:33:12;;;;;;;5.13;2.28;;;;;;;1.88;55.68;95969.31;5060625;28;20417;-56
2022/01/12 12:35:41;;;;;;;8.38;3.05;;;;;;;2.07;56.51;95969.16;5060026;28;20135;-54
2022/01/12 12:38:10;;;;;;;10.05;3.45;;;;;;;1.87;54.66;95965.13;5063585;28;20044;-52
2022/01/12 12:40:43;;;;;;;9.95;3.47;;;;;;;1.68;54.12;95974.63;5061596;28;20040;-52
2022/01/12 12:43:21;;;;;;;7.68;2.30;;;;;;;1.14;55.25;95963.50;5058826;28;20077;-54
2022/01/12 12:45:49;;;;;;;4.22;3.17;;;;;;;1.25;57.51;95965.88;5060600;28;20049;-51
2022/01/12 12:48:19;;;;;;;6.93;3.35;;;;;;;1.59;55.70;95978.06;5061001;28;20052;-54
2022/01/12 12:50:48;;;;;;;5.20;3.00;;;;;;;1.72;55.34;95968.22;5064118;28;20055;-54
2022/01/12 12:53:15;;;;;;;6.63;4.18;;;;;;;2.04;54.46;95966.06;5056456;28;20117;-52
2022/01/12 12:55:44;;;;;;;7.90;4.03;;;;;;;2.18;53.75;95972.41;5056396;28;20048;-51
2022/01/12 12:58:14;;;;;;;7.15;4.07;;;;;;;2.62;53.66;95974.94;5054620;28;20501;-54
2022/01/12 13:00:41;;;;;;;8.98;4.10;;;;;;;2.29;52.81;95974.75;5056953;28;20131;-51
2022/01/12 13:03:08;;;;;;;6.38;3.55;;;;;;;2.34;53.11;95979.44;5059405;28;20037;-52
2022/01/12 13:05:43;;;;;;;4.55;2.20;;;;;;;2.09;52.57;95974.94;5060544;28;20040;-54
2022/01/12 13:08:11;;;;;;;9.02;2.90;;;;;;;2.23;53.05;95985.63;5061019;28;20502;-55
2022/01/12 13:10:38;;;;;;;2.53;1.50;;;;;;;1.76;52.44;95983.34;5058329;28;20426;-51
2022/01/12 13:13:09;;;;;;;4.20;2.50;;;;;;;1.62;54.49;95987.22;5057388;28;20049;-53
2022/01/12 13:15:39;;;;;;;7.43;2.25;;;;;;;1.44;53.21;95974.38;5058249;28;20036;-50
2022/01/12 13:18:20;;;;;;;3.63;2.53;;;;;;;1.19;54.29;95981.03;5056861;28;20049;-56
2022/01/12 13:21:09;;;;;;;3.85;1.88;;;;;;;0.86;55.81;95976.31;5056369;28;20040;-55
2022/01/12 13:23:37;;;;;;;4.63;2.28;;;;;;;1.13;55.06;95987.53;5060146;28;20052;-53
2022/01/12 13:26:06;;;;;;;4.22;2.60;;;;;;;1.06;55.29;95996.75;5058406;28;20044;-53
2022/01/12 13:28:36;;;;;;;5.72;2.17;;;;;;;0.64;55.36;95998.03;5056970;28;20047;-54
2022/01/12 13:31:08;;;;;;;2.78;1.58;;;;;;;0.81;54.09;95993.94;5055501;28;20042;-52
2022/01/12 13:33:46;;;;;;;3.53;2.28;;;;;;;1.01;55.26;96004.06;5057949;28;20036;-51
2022/01/12 13:36:24;;;;;;;4.40;2.70;;;;;;;0.88;55.59;96004.41;5055692;28;20045;-51
2022/01/12 13:39:05;;;;;;;3.05;2.03;;;;;;;0.33;56.65;96000.81;5059652;28;20051;-54